Amargosa Valley, Nevada Weather observations

Data are for observation ending at time listed.
 Day   Time    Ave.   Ave.  Ave.  Vector   Max.   Stn.    Total    Solar   Ave.  
  of    of     Air    Rel.  Wind   Wind    Wind   Baro.  Precip.   Rad.    Soil  
Year   Day     Temp.  Hum.  Speed  Dir.    Gust   Pres.                    Temp. 
2016   (PST)    F      %     mph   deg.    mph     mb.     in.     W/m2     F   
------------------------------------------------------------------------------
 243    7:10   84.1    14    0.7    12      2.2   929.7    0.00     285    89.5
 243    7:20   85.5    13    0.8    17      2.6   929.8    0.00     346    89.4
 243    7:30   86.5    13    1.1    51      3.3   929.9    0.00     386    89.3
 243    7:40   87.2    13    1.5    77      4.8   930.0    0.00     416    89.2
 243    7:50   88.2    12    1.8    83      4.5   930.0    0.00     448    89.2
 243    8:00   88.6    12    2.4   108      4.2   930.1    0.00     480    89.1
 243    8:10   89.0    12    1.9   142      3.5   930.1    0.00     512    89.0
 243    8:20   89.5    12    3.0   140      6.3   930.3    0.00     542    88.9
 243    8:30   89.2    12    4.0   144      6.4   930.4    0.00     572    88.9
 243    8:40   89.6    12    3.6   146      5.6   930.4    0.00     588    88.9
 243    8:50   90.3    12    2.7   138      5.0   930.4    0.00     583    88.9
 243    9:00   91.2    12    3.1   160      5.4   930.4    0.00     655    88.8
 243    9:10   91.8    12    3.9   175      7.7   930.4    0.00     681    88.8
 243    9:20   93.0    11    2.9   178      5.6   930.4    0.00     671    88.7
 243    9:30   93.8    11    2.1   175      5.3   930.3    0.00     726    88.7
 243    9:40   94.6    11    3.0   176      6.6   930.2    0.00     534    88.7
 243    9:50   95.2    10    2.9   152      6.9   930.2    0.00     735    88.8
 243   10:00   95.5    11    3.6   151      6.9   930.2    0.00     789    88.8
 243   10:10   95.9    10    3.1   162      5.9   930.0    0.00     807    88.8
 243   10:20   97.1    10    4.2   128      8.0   930.0    0.00     821    88.9
 243   10:30   97.7    10    4.9   145      9.2   929.8    0.00     835    89.0
 243   10:40   97.4    10    4.7   163      9.4   929.8    0.00     848    89.1
 243   10:50   98.5    10    5.5   158     11.1   929.7    0.00     856    89.1
 243   11:00   98.6    10    6.2   145     17.7   929.7    0.00     867    89.2
 243   11:10   99.0    10    6.5   179     12.0   929.5    0.00     874    89.2
 243   11:20   99.4    10    7.5   148     12.1   929.4    0.00     880    89.3
 243   11:30   99.6    10    7.9   158     13.1   929.3    0.00     886    89.4
 243   11:40  100.1    10    6.6   136     11.6   929.2    0.00     889    89.5
 243   11:50  100.9     9    5.8   146     11.2   929.0    0.00     888    89.6
 243   12:00  101.2    10    5.7   152     10.2   928.8    0.00     888    89.7
 243   12:10  101.5     9    6.2   108     11.5   928.8    0.00     886    89.9
 243   12:20  101.4     9    4.7   109     10.2   928.7    0.00     882    90.1
 243   12:30  102.5     9    5.0   144     12.7   928.6    0.00     876    90.2
 243   12:40  102.3     9    4.9   139     11.8   928.5    0.00     868    90.5
 243   12:50  102.5     9    3.9   122      9.7   928.3    0.00     771    90.8
 243   13:00  102.7     9    3.8   129      9.6   928.2    0.00     850    91.1
 243   13:10  103.6     8    8.5   120     13.7   928.0    0.00     847    91.4
 243   13:20  102.7     9    7.5   154     14.5   927.9    0.00     837    91.6
 243   13:30  103.1     9    2.7    43     13.2   927.7    0.00     845    91.9
 243   13:40  102.8     9    2.3    47      9.1   927.6    0.00     519    92.2
 243   13:50  103.7     9    5.0   137     11.8   927.5    0.00     854    92.5
 243   14:00  103.4     9    5.4   119     13.5   927.3    0.00     815    92.8
 243   14:10  103.6     9    5.0   154     11.4   927.1    0.00     791    93.2
 243   14:20  103.2     8    5.9   189     10.6   927.0    0.00     786    93.5
 243   14:30  103.6     8    8.0   196     18.7   927.0    0.00     702    93.8
 243   14:40  103.1     9    8.9   200     14.3   926.8    0.00     640    94.2
 243   14:50  102.7     9    5.4   161     11.5   926.7    0.00     655    94.5
 243   15:00  103.4     8   11.2   192     18.8   926.7    0.00     628    94.8
 243   15:10  103.0     9    9.4   184     16.1   926.7    0.00     258    95.1
 243   15:20  102.9     9    6.9   187     14.5   926.5    0.00      64    95.4
 243   15:30  102.7     8    8.9   207     18.9   926.3    0.00      93    95.7
 243   15:40  102.5     8    5.3   221     12.7   926.2    0.00      97    96.0
 243   15:50  103.1     8    1.9   276      7.7   926.1    0.00      97    96.2
 243   16:00  103.2     8    7.4   180     18.9   926.0    0.00      98    96.4
 243   16:10  103.1     9    8.1   175     14.2   925.9    0.00      87    96.5
 243   16:20  102.6     9    8.5   193     15.9   925.9    0.00      77    96.7
 243   16:30  102.3     9    6.8   173     13.5   925.8    0.00      75    96.8
 243   16:40  102.1     8    8.0   158     14.8   925.8    0.00      91    97.0
 243   16:50  102.8     8   10.1   154     15.9   925.8    0.00      68    97.1
 243   17:00  102.0     8    8.5   165     13.4   925.7    0.00      54    97.2
 243   17:10  101.5     8    7.0   186     10.7   925.6    0.00      42    97.2
 243   17:20  101.5     8    7.1   173     13.1   925.5    0.00      36    97.3
 243   17:30  101.2     9    9.1   181     13.4   925.4    0.00      29    97.3
 243   17:40  100.9     9    8.8   179     12.8   925.3    0.00      29    97.4
 243   17:50  100.3     9    8.0   175     11.3   925.3    0.00      21    97.4
 243   18:00   99.8     9    6.6   157      9.3   925.3    0.00      15    97.4
 243   18:10   99.1     9    5.5   150      8.1   925.3    0.00       9    97.4
 243   18:20   98.2     9    4.1   133      5.8   925.3    0.00       4    97.4
 243   18:30   97.0    10    4.5   128      6.6   925.3    0.00       2    97.4
 243   18:40   96.0    10    4.7   134      5.9   925.3    0.00       0    97.4
 243   18:50   95.1    10    5.2   129      9.4   925.3    0.00       0    97.3
 243   19:00   94.6    11    7.0   146      9.8   925.4    0.00       0    97.3
 243   19:10   95.0    11    8.2   140     12.0   925.5    0.00       0    97.3
 243   19:20   94.5    11    8.6   142     13.5   925.5    0.00       0    97.2
 243   19:30   94.0    11    8.1   144     12.0   925.6    0.00       0    97.2
 243   19:40   93.8    11    9.2   156     12.9   925.7    0.00       0    97.1
 243   19:50   92.7    12    7.8   161     11.3   925.8    0.00       0    97.1
 243   20:00   91.7    12    6.4   154      9.3   925.9    0.00       0    97.0
 243   20:10   91.2    12    7.1   159     10.2   925.9    0.00       0    97.0
 243   20:20   90.9    12    7.2   156     10.2   925.9    0.00       0    96.9
 243   20:30   91.1    12    7.5   149     11.0   925.9    0.00       0    96.8
 243   20:40   91.1    12    6.9   148      9.5   926.0    0.00       0    96.8
 243   20:50   91.8    12    9.4   155     19.6   926.0    0.00       0    96.7
 243   21:00   91.5    12    8.4   171     13.8   926.0    0.00       0    96.6
 243   21:10   91.0    13    8.7   172     12.9   926.0    0.00       0    96.5
 243   21:20   90.3    13    7.6   173     14.6   926.1    0.00       0    96.5
 243   21:30   89.4    13    7.8   175     12.0   926.1    0.00       0    96.4
 243   21:40   89.9    13    8.4   170     12.1   926.1    0.00       0    96.3
 243   21:50   90.3    13    8.8   167     15.9   926.1    0.00       0    96.2
 243   22:00   89.3    13    8.4   170     12.3   926.1    0.00       0    96.2
 243   22:10   88.8    13    8.4   168     12.5   926.2    0.00       0    96.1
 243   22:20   89.1    13    8.1   156     13.1   926.2    0.00       0    96.0
 243   22:30   88.7    13    6.4   148      9.1   926.2    0.00       0    96.0
 243   22:40   88.6    13    7.6   145     11.3   926.3    0.00       0    95.9
 243   22:50   88.6    13    8.0   148     11.8   926.3    0.00       0    95.7
 243   23:00   88.1    13    8.1   147     11.8   926.3    0.00       0    95.6
 243   23:10   87.3    13    7.0   148     10.1   926.3    0.00       0    95.6
 243   23:20   86.6    14    7.4   148     11.3   926.4    0.00       0    95.5
 243   23:30   86.6    14    7.5   148     10.6   926.4    0.00       0    95.4
 243   23:40   86.6    14    6.6   148      9.9   926.4    0.00       0    95.3
 243   23:50   86.8    14    5.9   143      8.3   926.3    0.00       0    95.3
 244    0:00   86.6    14    5.5   155      8.0   926.3    0.00       0    95.2
 244    0:10   85.9    14    4.7   153      8.6   926.3    0.00       0    95.1
 244    0:20   85.9    14    4.8   134      7.7   926.3    0.00       0    95.0
 244    0:30   84.1    15    5.0    98      6.9   926.3    0.00       0    94.9
 244    0:40   82.8    16    4.5    97      6.8   926.4    0.00       0    94.9
 244    0:50   82.8    16    4.6    96      6.6   926.4    0.00       0    94.8
 244    1:00   82.7    16    4.7    99      6.7   926.3    0.00       0    94.7
 244    1:10   82.8    16    6.3    91      7.9   926.3    0.00       0    94.6
 244    1:20   82.5    17    5.9    93      7.6   926.3    0.00       0    94.6
 244    1:30   82.8    16    5.9    94      7.4   926.2    0.00       0    94.5
 244    1:40   82.9    16    5.6    87      6.9   926.2    0.00       0    94.4
 244    1:50   82.7    16    5.7    97      8.3   926.2    0.00       0    94.3
 244    2:00   82.9    16    5.5    97      9.1   926.2    0.00       0    94.2
 244    2:10   82.7    17    4.3    89      6.4   926.2    0.00       0    94.1
 244    2:20   81.6    17    0.8    75      3.9   926.2    0.00       0    94.0
 244    2:30   78.6    19    0.0     0      0.0   926.2    0.00       0    93.9
 244    2:40   77.8    19    0.3    62      3.0   926.2    0.00       0    93.8
 244    2:50   79.3    19    1.7    78      3.3   926.1    0.00       0    93.7
 244    3:00   80.7    18    3.6    82      5.8   926.1    0.00       0    93.6
 244    3:10   81.3    18    5.1   114      8.8   926.1    0.00       0    93.6
 244    3:20   83.4    17    7.7   112     11.2   926.1    0.00       0    93.5
 244    3:30   82.7    17    5.6    99      8.8   926.2    0.00       0    93.4
 244    3:40   81.4    18    5.0   120      7.2   926.2    0.00       0    93.2
 244    3:50   81.3    18    6.2   124      8.0   926.2    0.00       0    93.1
 244    4:00   80.7    19    5.4   114      7.5   926.2    0.00       0    93.0
 244    4:10   79.9    19    4.5   104      5.8   926.2    0.00       0    92.9
 244    4:20   79.6    19    4.4   101      5.6   926.2    0.00       0    92.9
 244    4:30   79.7    19    4.4    97      6.5   926.2    0.00       0    92.8
 244    4:40   79.6    19    4.2    98      6.1   926.2    0.00       0    92.7
 244    4:50   79.6    20    4.9    86      6.3   926.2    0.00       0    92.6
 244    5:00   79.2    20    5.5    81      7.9   926.3    0.00       0    92.5
 244    5:10   78.2    21    5.4    78      8.8   926.4    0.00       0    92.5
 244    5:20   76.5    22    2.1    55      4.2   926.5    0.00       4    92.4
 244    5:30   76.4    22    1.6    56      3.8   926.7    0.00      10    92.3
 244    5:40   77.6    21    2.3    56      4.2   926.7    0.00      30    92.2
 244    5:50   78.3    21    2.2    62      4.9   926.7    0.00      59    92.1
 244    6:00   79.1    21    2.3    68      5.3   926.9    0.00      91    92.0
 244    6:10   79.7    20    2.0    63      3.8   927.1    0.00     127    91.9
 244    6:20   80.8    20    4.1    79      7.5   927.2    0.00     155    91.8
 244    6:30   82.4    19    5.0    86      7.5   927.3    0.00     184    91.7
 244    6:40   83.8    18    4.1   103      5.6   927.4    0.00     215    91.6
 244    6:50   85.0    17    4.9    99      7.5   927.5    0.00     247    91.5
 244    7:00   86.0    16    5.0   104      6.9   927.6    0.00     281    91.4

Return to Amargosa Valley, Nevada graphs page.


Western Regional Climate Center,wrcc@dri.edu